createdAt,value
2018-08-11T00:02:04.911Z,3.30
2018-08-11T00:04:33.325Z,3.00
2018-08-11T00:07:01.988Z,3.40
2018-08-11T00:09:30.616Z,3.47
2018-08-11T00:11:59.261Z,3.33
2018-08-11T00:14:28.012Z,3.40
2018-08-11T00:16:56.596Z,3.80
2018-08-11T00:19:25.350Z,3.53
2018-08-11T00:21:53.880Z,3.90
2018-08-11T00:24:22.288Z,3.70
2018-08-11T00:26:50.726Z,3.47
2018-08-11T00:29:19.496Z,3.60
2018-08-11T00:31:48.238Z,3.93
2018-08-11T00:34:16.751Z,3.97
2018-08-11T00:36:45.643Z,4.03
2018-08-11T00:39:14.151Z,4.13
2018-08-11T00:41:42.569Z,3.90
2018-08-11T00:44:11.496Z,3.83
2018-08-11T00:46:40.241Z,3.60
2018-08-11T00:49:08.749Z,3.60
2018-08-11T00:51:37.402Z,3.80
2018-08-11T00:54:05.907Z,3.53
2018-08-11T00:56:34.571Z,4.10
2018-08-11T00:59:03.085Z,3.90
2018-08-11T01:01:31.727Z,4.30
2018-08-11T01:04:00.456Z,3.70
2018-08-11T01:06:28.981Z,3.77
2018-08-11T01:08:57.387Z,3.60
2018-08-11T01:11:26.032Z,4.00
2018-08-11T01:13:54.534Z,3.73
2018-08-11T01:16:23.183Z,3.30
2018-08-11T01:18:51.683Z,2.97
2018-08-11T01:21:20.347Z,3.40
2018-08-11T01:23:48.893Z,3.07
2018-08-11T01:26:17.545Z,3.47
2018-08-11T01:28:46.315Z,4.10
2018-08-11T01:31:14.909Z,3.60
2018-08-11T01:33:43.547Z,3.50
2018-08-11T01:36:12.284Z,3.97
2018-08-11T01:38:40.791Z,3.60
2018-08-11T01:41:09.232Z,3.90
2018-08-11T01:43:38.520Z,3.40
2018-08-11T01:46:06.937Z,3.13
2018-08-11T01:48:35.575Z,3.50
2018-08-11T01:51:04.084Z,3.30
2018-08-11T01:53:32.496Z,3.40
2018-08-11T01:56:00.904Z,3.60
2018-08-11T01:58:29.343Z,3.20
2018-08-11T02:00:57.996Z,3.80
2018-08-11T02:03:26.497Z,3.40
2018-08-11T02:05:54.903Z,3.73
2018-08-11T02:08:23.329Z,3.27
2018-08-11T02:10:52.024Z,3.50
2018-08-11T02:13:20.612Z,3.40
2018-08-11T02:15:49.024Z,4.00
2018-08-11T02:18:17.488Z,3.73
2018-08-11T02:20:46.245Z,3.47
2018-08-11T02:23:14.742Z,3.53
2018-08-11T02:25:43.189Z,3.60
2018-08-11T02:28:11.828Z,3.67
2018-08-11T02:30:40.406Z,3.97
2018-08-11T02:33:08.816Z,3.90
2018-08-11T02:35:37.462Z,3.23
2018-08-11T02:38:06.183Z,3.57
2018-08-11T02:40:34.731Z,3.63
2018-08-11T02:43:03.373Z,3.50
2018-08-11T02:45:32.105Z,3.83
2018-08-11T02:48:00.595Z,3.40
2018-08-11T02:50:29.257Z,3.60
2018-08-11T02:52:57.992Z,3.60
2018-08-11T02:55:26.501Z,3.30
2018-08-11T02:57:54.935Z,3.70
2018-08-11T03:00:23.570Z,3.40
2018-08-11T03:02:52.077Z,3.00
2018-08-11T03:05:20.498Z,3.50
2018-08-11T03:07:48.920Z,3.30
2018-08-11T03:10:17.436Z,3.30
2018-08-11T03:12:46.099Z,3.37
2018-08-11T03:15:14.611Z,3.40
2018-08-11T03:17:43.256Z,3.03
2018-08-11T03:20:13.428Z,3.50
2018-08-11T03:22:42.356Z,3.50
2018-08-11T03:25:10.976Z,3.80
2018-08-11T03:27:39.704Z,3.50
2018-08-11T03:30:08.348Z,3.40
2018-08-11T03:32:36.746Z,3.83
2018-08-11T03:35:05.880Z,2.87
2018-08-11T03:37:34.608Z,3.10
2018-08-11T03:40:03.405Z,2.97
2018-08-11T03:42:31.923Z,3.00
2018-08-11T03:45:00.578Z,3.10
2018-08-11T03:47:29.309Z,3.57
2018-08-11T03:49:58.064Z,2.50
2018-08-11T03:52:26.614Z,3.03
2018-08-11T03:54:54.987Z,2.70
2018-08-11T03:57:23.668Z,2.40
2018-08-11T03:59:52.401Z,2.87
2018-08-11T04:02:20.900Z,2.83
2018-08-11T04:04:49.551Z,3.00
2018-08-11T04:07:18.255Z,3.20
2018-08-11T04:09:46.774Z,2.83
2018-08-11T04:12:15.416Z,3.33
2018-08-11T04:14:44.124Z,3.17
2018-08-11T04:17:12.612Z,2.83
2018-08-11T04:19:41.076Z,3.37
2018-08-11T04:22:09.463Z,3.30
2018-08-11T04:24:38.093Z,3.30
2018-08-11T04:27:06.600Z,2.90
2018-08-11T04:29:35.301Z,2.90
2018-08-11T04:32:04.025Z,2.80
2018-08-11T04:34:32.539Z,2.87
2018-08-11T04:37:00.944Z,2.77
2018-08-11T04:39:29.615Z,3.13
2018-08-11T04:41:58.674Z,3.00
2018-08-11T04:44:27.435Z,2.90
2018-08-11T04:46:56.164Z,2.77
2018-08-11T04:49:24.752Z,3.20
2018-08-11T04:51:53.367Z,2.93
2018-08-11T04:54:22.088Z,2.87
2018-08-11T04:56:50.603Z,3.17
2018-08-11T04:59:19.229Z,3.23
2018-08-11T05:01:47.725Z,3.10
2018-08-11T05:04:16.372Z,3.10
2018-08-11T05:06:44.897Z,3.93
2018-08-11T05:09:13.527Z,2.70
2018-08-11T05:11:42.048Z,3.10
2018-08-11T05:14:10.463Z,3.37
2018-08-11T05:16:38.867Z,3.40
2018-08-11T05:19:07.709Z,3.40
2018-08-11T05:21:36.212Z,3.77
2018-08-11T05:24:04.730Z,3.50
2018-08-11T05:26:33.372Z,3.70
2018-08-11T05:29:02.185Z,3.67
2018-08-11T05:31:30.704Z,3.83
2018-08-11T05:33:59.356Z,3.50
2018-08-11T05:36:28.076Z,3.70
2018-08-11T05:38:56.575Z,3.80
2018-08-11T05:41:24.999Z,3.70
2018-08-11T05:43:53.631Z,3.50
2018-08-11T05:46:22.360Z,3.70
2018-08-11T05:48:50.884Z,3.40
2018-08-11T05:51:19.584Z,3.50
2018-08-11T05:53:48.304Z,3.07
2018-08-11T05:56:16.804Z,2.50
2018-08-11T05:58:45.436Z,2.97
2018-08-11T06:01:14.052Z,2.70
2018-08-11T06:03:42.485Z,2.57
2018-08-11T06:06:10.907Z,3.00
2018-08-11T06:08:39.560Z,2.67
2018-08-11T06:11:08.228Z,2.50
2018-08-11T06:13:36.633Z,2.60
2018-08-11T06:16:05.093Z,2.30
2018-08-11T06:18:33.507Z,2.50
2018-08-11T06:21:01.924Z,2.40
2018-08-11T06:23:30.502Z,2.30
2018-08-11T06:25:59.032Z,2.93
2018-08-11T06:28:27.667Z,2.40
2018-08-11T06:30:56.224Z,2.30
2018-08-11T06:33:24.689Z,2.60
2018-08-11T06:35:53.365Z,2.40
2018-08-11T06:38:22.095Z,2.30
2018-08-11T06:40:50.837Z,2.40
2018-08-11T06:43:19.271Z,2.90
2018-08-11T06:45:47.918Z,2.30
2018-08-11T06:48:16.706Z,2.17
2018-08-11T06:50:45.498Z,2.10
2018-08-11T06:53:13.897Z,1.97
2018-08-11T06:55:42.608Z,1.97
2018-08-11T06:58:10.982Z,1.50
2018-08-11T07:00:39.395Z,1.70
2018-08-11T07:03:08.027Z,1.90
2018-08-11T07:05:36.625Z,1.50
2018-08-11T07:08:05.024Z,1.80
2018-08-11T07:10:33.452Z,1.50
2018-08-11T07:13:02.156Z,1.70
2018-08-11T07:15:30.648Z,1.70
2018-08-11T07:17:59.095Z,1.60
2018-08-11T07:20:27.564Z,1.83
2018-08-11T07:22:56.202Z,1.60
2018-08-11T07:25:24.607Z,1.87
2018-08-11T07:27:53.039Z,1.43
2018-08-11T07:30:21.517Z,1.90
2018-08-11T07:32:49.917Z,1.60
2018-08-11T07:35:18.446Z,1.60
2018-08-11T07:37:46.873Z,1.50
2018-08-11T07:40:15.552Z,1.80
2018-08-11T07:42:43.942Z,1.57
2018-08-11T07:45:12.369Z,1.70
2018-08-11T07:47:40.894Z,1.83
2018-08-11T07:50:10.169Z,1.80
2018-08-11T07:52:38.580Z,1.80
2018-08-11T07:55:06.994Z,1.77
2018-08-11T07:57:35.428Z,1.90
2018-08-11T08:00:04.772Z,1.80
2018-08-11T08:02:33.216Z,2.20
2018-08-11T08:05:01.688Z,2.50
2018-08-11T08:07:30.125Z,2.57
2018-08-11T08:09:58.589Z,2.40
2018-08-11T08:12:27.032Z,2.50
2018-08-11T08:14:55.689Z,2.47
2018-08-11T08:17:24.441Z,2.20
2018-08-11T08:19:52.981Z,2.23
2018-08-11T08:22:21.421Z,2.27
2018-08-11T08:24:49.900Z,2.40
2018-08-11T08:27:18.617Z,2.60
2018-08-11T08:29:47.149Z,2.67
2018-08-11T08:32:15.583Z,2.40
2018-08-11T08:34:43.995Z,2.40
2018-08-11T08:37:12.467Z,2.20
2018-08-11T08:39:40.947Z,2.50
2018-08-11T08:42:09.436Z,2.00
2018-08-11T08:44:37.903Z,2.30
2018-08-11T08:47:06.372Z,2.60
2018-08-11T08:49:34.808Z,2.50
2018-08-11T08:52:03.251Z,2.40
2018-08-11T08:54:31.710Z,2.60
2018-08-11T08:57:00.153Z,2.60
2018-08-11T08:59:28.614Z,2.27
2018-08-11T09:01:57.060Z,2.33
2018-08-11T09:04:26.294Z,2.30
2018-08-11T09:06:54.752Z,2.37
2018-08-11T09:09:23.203Z,2.43
2018-08-11T09:11:51.703Z,2.40
2018-08-11T09:14:20.117Z,2.37
2018-08-11T09:16:48.569Z,2.20
2018-08-11T09:19:17.048Z,2.47
2018-08-11T09:21:45.497Z,2.27
2018-08-11T09:24:13.936Z,1.77
2018-08-11T09:26:42.388Z,2.20
2018-08-11T09:29:10.823Z,1.70
2018-08-11T09:31:39.282Z,2.07
2018-08-11T09:34:07.712Z,2.33
2018-08-11T09:36:36.208Z,2.27
2018-08-11T09:39:06.213Z,2.33
2018-08-11T09:41:34.637Z,2.40
2018-08-11T09:44:03.053Z,2.00
2018-08-11T09:46:31.548Z,1.87
2018-08-11T09:48:59.974Z,2.10
2018-08-11T09:51:28.406Z,2.00
2018-08-11T09:53:56.861Z,2.07
2018-08-11T09:56:25.276Z,2.10
2018-08-11T09:58:53.709Z,2.37
2018-08-11T10:02:26.777Z,2.00
2018-08-11T10:04:55.206Z,2.40
2018-08-11T10:07:23.649Z,1.90
2018-08-11T10:09:52.183Z,2.10
2018-08-11T10:12:20.650Z,2.40
2018-08-11T10:14:49.075Z,2.00
2018-08-11T10:17:17.539Z,2.07
2018-08-11T10:19:45.995Z,1.90
2018-08-11T10:22:14.403Z,1.87
2018-08-11T10:24:42.808Z,2.37
2018-08-11T10:27:11.216Z,2.33
2018-08-11T10:29:39.639Z,2.67
2018-08-11T10:32:08.047Z,2.50
2018-08-11T10:34:36.465Z,2.50
2018-08-11T10:37:04.922Z,3.27
2018-08-11T10:39:33.320Z,2.83
2018-08-11T10:42:01.718Z,2.77
2018-08-11T10:44:30.172Z,3.10
2018-08-11T10:46:58.928Z,3.07
2018-08-11T10:49:27.388Z,3.10
2018-08-11T10:51:55.793Z,2.97
2018-08-11T10:54:24.214Z,3.20
2018-08-11T10:56:52.626Z,3.17
2018-08-11T10:59:21.038Z,3.33
2018-08-11T11:01:49.464Z,3.20
2018-08-11T11:04:17.895Z,2.90
2018-08-11T11:06:46.308Z,2.90
2018-08-11T11:09:14.723Z,2.50
2018-08-11T11:11:43.119Z,2.30
2018-08-11T11:14:11.559Z,2.70
2018-08-11T11:16:39.955Z,2.50
2018-08-11T11:19:08.364Z,2.40
2018-08-11T11:21:51.347Z,2.00
2018-08-11T11:24:19.772Z,2.07
2018-08-11T11:26:48.203Z,1.90
2018-08-11T11:29:16.627Z,2.03
2018-08-11T11:31:45.054Z,1.93
2018-08-11T11:34:13.553Z,1.47
2018-08-11T11:36:41.971Z,1.50
2018-08-11T11:39:10.419Z,1.50
2018-08-11T11:41:39.257Z,1.57
2018-08-11T11:44:08.415Z,1.50
2018-08-11T11:46:36.989Z,1.30
2018-08-11T11:49:05.573Z,1.50
2018-08-11T11:51:33.953Z,1.63
2018-08-11T11:54:02.455Z,1.60
2018-08-11T11:56:30.865Z,1.50
2018-08-11T11:58:59.288Z,1.50
2018-08-11T12:01:27.713Z,1.70
2018-08-11T12:03:56.172Z,1.50
2018-08-11T12:06:24.599Z,1.53
2018-08-11T12:08:53.044Z,1.70
2018-08-11T12:11:21.708Z,1.70
2018-08-11T12:13:50.268Z,1.70
2018-08-11T12:16:18.682Z,1.60
2018-08-11T12:18:47.100Z,1.50
2018-08-11T12:21:15.618Z,1.40
2018-08-11T12:23:44.608Z,1.43
2018-08-11T12:26:13.194Z,1.30
2018-08-11T12:28:41.617Z,1.40
2018-08-11T12:31:10.053Z,1.20
2018-08-11T12:33:38.464Z,1.40
2018-08-11T12:36:06.902Z,1.43
2018-08-11T12:38:35.323Z,1.10
2018-08-11T12:41:03.725Z,1.17
2018-08-11T12:43:32.173Z,1.10
2018-08-11T12:46:00.724Z,1.20
2018-08-11T12:48:29.041Z,1.50
2018-08-11T12:50:57.479Z,1.17
2018-08-11T12:53:25.932Z,1.30
2018-08-11T12:55:54.328Z,1.30
2018-08-11T12:58:22.758Z,1.20
2018-08-11T13:00:51.194Z,1.40
2018-08-11T13:03:19.594Z,1.50
2018-08-11T13:05:48.032Z,1.47
2018-08-11T13:08:16.444Z,1.33
2018-08-11T13:10:44.855Z,1.60
2018-08-11T13:13:13.388Z,1.63
2018-08-11T13:15:41.832Z,1.50
2018-08-11T13:18:10.285Z,1.40
2018-08-11T13:20:38.787Z,1.40
2018-08-11T13:23:07.176Z,1.60
2018-08-11T13:25:35.832Z,1.83
2018-08-11T13:28:04.382Z,1.47
2018-08-11T13:30:32.890Z,1.77
2018-08-11T13:33:01.311Z,1.63
2018-08-11T13:35:29.983Z,1.90
2018-08-11T13:37:58.500Z,1.50
2018-08-11T13:40:26.928Z,1.60
2018-08-11T13:42:55.411Z,1.60
2018-08-11T13:45:23.860Z,1.70
2018-08-11T13:47:52.310Z,1.70
2018-08-11T13:50:20.759Z,1.83
2018-08-11T13:52:49.184Z,1.40
2018-08-11T13:55:17.707Z,1.43
2018-08-11T13:57:46.079Z,1.23
2018-08-11T14:00:14.503Z,1.40
2018-08-11T14:02:42.925Z,1.70
2018-08-11T14:05:11.339Z,1.33
2018-08-11T14:07:39.882Z,1.60
2018-08-11T14:10:09.303Z,1.20
2018-08-11T14:12:37.831Z,1.67
2018-08-11T14:15:06.511Z,1.30
2018-08-11T14:17:34.912Z,2.07
2018-08-11T14:20:03.481Z,1.60
2018-08-11T14:22:31.894Z,1.40
2018-08-11T14:25:00.317Z,1.37
2018-08-11T14:27:28.762Z,1.70
2018-08-11T14:29:57.180Z,1.47
2018-08-11T14:32:25.649Z,1.60
2018-08-11T14:34:54.084Z,1.40
2018-08-11T14:37:22.707Z,1.50
2018-08-11T14:39:51.228Z,1.40
2018-08-11T14:42:19.676Z,1.47
2018-08-11T14:44:48.114Z,1.30
2018-08-11T14:47:16.532Z,1.53
2018-08-11T14:49:44.944Z,1.30
2018-08-11T14:52:13.458Z,1.70
2018-08-11T14:54:41.884Z,1.33
2018-08-11T14:57:10.390Z,1.50
2018-08-11T14:59:38.990Z,1.43
2018-08-11T15:02:07.428Z,1.40
2018-08-11T15:04:35.945Z,1.50
2018-08-11T15:07:04.793Z,1.50
2018-08-11T15:09:33.308Z,1.50
2018-08-11T15:12:01.746Z,1.40
2018-08-11T15:14:30.204Z,1.50
2018-08-11T15:16:58.669Z,1.50
2018-08-11T15:19:27.214Z,1.40
2018-08-11T15:21:55.720Z,1.50
2018-08-11T15:24:24.164Z,3.03
2018-08-11T15:26:52.604Z,1.37
2018-08-11T15:29:21.131Z,1.20
2018-08-11T15:31:49.539Z,1.60
2018-08-11T15:34:18.229Z,1.40
2018-08-11T15:36:46.822Z,1.40
2018-08-11T15:39:15.240Z,1.40
2018-08-11T15:41:43.667Z,1.17
2018-08-11T15:44:12.080Z,1.37
2018-08-11T15:46:40.518Z,1.63
2018-08-11T15:49:08.942Z,1.43
2018-08-11T15:51:37.364Z,1.20
2018-08-11T15:54:06.099Z,1.50
2018-08-11T15:56:34.545Z,1.53
2018-08-11T15:59:02.976Z,1.30
2018-08-11T16:01:31.417Z,1.50
2018-08-11T16:04:00.111Z,1.60
2018-08-11T16:06:28.754Z,1.30
2018-08-11T16:08:57.329Z,1.23
2018-08-11T16:11:25.749Z,1.60
2018-08-11T16:13:54.392Z,1.73
2018-08-11T16:16:22.959Z,1.47
2018-08-11T16:18:51.388Z,1.43
2018-08-11T16:21:20.070Z,1.70
2018-08-11T16:23:48.665Z,1.37
2018-08-11T16:26:17.096Z,1.30
2018-08-11T16:28:45.544Z,1.63
2018-08-11T16:31:14.018Z,1.67
2018-08-11T16:33:42.499Z,1.73
2018-08-11T16:36:10.948Z,2.50
2018-08-11T16:38:39.404Z,2.43
2018-08-11T16:41:07.910Z,3.00
2018-08-11T16:43:36.349Z,3.07
2018-08-11T16:46:04.824Z,1.37
2018-08-11T16:48:33.326Z,1.60
2018-08-11T16:51:02.029Z,1.50
2018-08-11T16:53:30.549Z,1.40
2018-08-11T16:55:59.009Z,1.27
2018-08-11T16:58:27.379Z,1.30
2018-08-11T17:00:55.808Z,1.67
2018-08-11T17:03:24.192Z,2.07
2018-08-11T17:05:52.877Z,1.90
2018-08-11T17:08:21.256Z,1.20
2018-08-11T17:10:49.651Z,1.33
2018-08-11T17:13:18.063Z,1.10
2018-08-11T17:15:46.438Z,1.60
2018-08-11T17:27:15.623Z,1.50
2018-08-11T17:29:44.223Z,1.23
2018-08-11T17:32:12.745Z,1.30
2018-08-11T17:34:41.356Z,1.50
2018-08-11T17:37:09.844Z,1.90
2018-08-11T17:39:38.665Z,1.67
2018-08-11T17:42:07.669Z,1.70
2018-08-11T17:44:41.134Z,2.23
2018-08-11T17:47:09.555Z,1.87
2018-08-11T17:49:38.130Z,1.77
2018-08-11T17:52:06.593Z,1.60
2018-08-11T17:54:35.221Z,1.80
2018-08-11T17:57:03.627Z,1.80
2018-08-11T17:59:32.055Z,1.60
2018-08-11T18:02:15.043Z,1.57
2018-08-11T18:04:43.678Z,1.83
2018-08-11T18:07:12.206Z,1.80
2018-08-11T18:09:41.228Z,1.70
2018-08-11T18:12:09.826Z,1.60
2018-08-11T18:14:38.341Z,2.00
2018-08-11T18:17:07.147Z,1.67
2018-08-11T18:19:35.674Z,1.80
2018-08-11T18:22:04.128Z,1.67
2018-08-11T18:24:33.098Z,1.60
2018-08-11T18:27:01.566Z,1.40
2018-08-11T18:29:29.955Z,2.10
2018-08-11T18:31:58.395Z,1.63
2018-08-11T18:34:26.801Z,2.00
2018-08-11T18:36:55.217Z,1.90
2018-08-11T18:39:23.630Z,1.80
2018-08-11T18:41:52.037Z,1.90
2018-08-11T18:44:20.435Z,1.87
2018-08-11T18:46:48.835Z,1.60
2018-08-11T18:49:17.307Z,1.83
2018-08-11T18:51:45.708Z,1.70
2018-08-11T18:54:14.127Z,1.77
2018-08-11T18:56:42.528Z,1.60
2018-08-11T18:59:11.050Z,1.70
2018-08-11T19:01:39.519Z,1.57
2018-08-11T19:26:11.980Z,1.50
2018-08-11T19:28:40.366Z,1.83
2018-08-11T19:31:08.797Z,1.90
2018-08-11T19:33:37.203Z,1.63
2018-08-11T19:36:05.981Z,1.87
2018-08-11T19:38:34.371Z,1.87
2018-08-11T19:41:02.872Z,1.77
2018-08-11T19:43:31.195Z,1.73
2018-08-11T19:45:59.631Z,1.70
2018-08-11T19:48:27.998Z,1.60
2018-08-11T20:16:46.325Z,1.90
2018-08-11T20:19:14.904Z,1.70
2018-08-11T20:21:43.176Z,1.97
2018-08-11T20:24:11.657Z,2.10
2018-08-11T20:26:40.096Z,2.00
2018-08-11T20:29:08.518Z,1.80
2018-08-11T20:31:36.956Z,1.67
2018-08-11T20:34:05.387Z,1.90
2018-08-11T20:36:33.845Z,2.13
2018-08-11T20:39:02.701Z,1.90
2018-08-11T20:41:31.224Z,2.03
2018-08-11T20:43:59.653Z,1.93
2018-08-11T20:46:28.086Z,2.10
2018-08-11T20:48:56.517Z,2.00
2018-08-11T20:51:25.285Z,2.30
2018-08-11T20:53:53.732Z,2.13
2018-08-11T20:56:22.157Z,1.97
2018-08-11T20:58:50.596Z,2.00
2018-08-11T21:01:19.057Z,2.20
2018-08-11T21:03:47.451Z,2.20
2018-08-11T21:06:15.868Z,2.00
2018-08-11T21:08:44.320Z,1.90
2018-08-11T21:11:12.742Z,1.80
2018-08-11T21:13:41.176Z,1.80
2018-08-11T21:16:09.625Z,2.10
2018-08-11T21:18:38.072Z,2.20
2018-08-11T21:21:06.516Z,1.90
2018-08-11T21:23:34.986Z,2.10
2018-08-11T21:26:03.373Z,2.03
2018-08-11T21:28:31.808Z,1.97
2018-08-11T21:31:00.315Z,2.00
2018-08-11T21:33:28.780Z,1.90
2018-08-11T21:36:56.663Z,2.10
2018-08-11T21:39:25.169Z,2.00
2018-08-11T21:41:53.632Z,2.00
2018-08-11T21:44:22.297Z,2.20
2018-08-11T21:46:50.820Z,2.43
2018-08-11T21:49:19.270Z,2.47
2018-08-11T21:51:47.744Z,2.13
2018-08-11T21:54:16.189Z,1.73
2018-08-11T21:56:44.633Z,2.30
2018-08-11T21:59:13.067Z,2.37
2018-08-11T22:01:41.511Z,2.10
2018-08-11T22:04:10.049Z,2.30
2018-08-11T22:06:38.566Z,1.90
2018-08-11T22:09:08.486Z,2.13
2018-08-11T22:11:36.891Z,1.90
2018-08-11T22:14:05.569Z,1.83
2018-08-11T22:16:33.987Z,2.27
2018-08-11T22:19:02.426Z,2.83
2018-08-11T22:21:30.892Z,2.33
2018-08-11T22:23:59.324Z,2.10
2018-08-11T22:26:27.751Z,2.20
2018-08-11T22:28:56.195Z,2.53
2018-08-11T22:31:24.622Z,2.20
2018-08-11T22:33:53.069Z,2.10
2018-08-11T22:36:21.520Z,1.90
2018-08-11T22:38:49.946Z,2.00
2018-08-11T22:41:18.391Z,2.03
2018-08-11T22:43:46.877Z,1.90
2018-08-11T22:46:15.296Z,2.00
2018-08-11T22:48:43.731Z,1.97
2018-08-11T22:51:12.151Z,2.00
2018-08-11T22:53:40.574Z,2.00
2018-08-11T22:56:08.976Z,2.63
2018-08-11T22:58:37.686Z,2.00
2018-08-11T23:01:06.474Z,2.20
2018-08-11T23:03:35.006Z,1.80
2018-08-11T23:06:03.483Z,2.00
2018-08-11T23:08:31.911Z,2.27
2018-08-11T23:11:00.336Z,1.80
2018-08-11T23:13:28.802Z,2.40
2018-08-11T23:15:57.228Z,2.07
2018-08-11T23:18:25.648Z,1.73
2018-08-11T23:20:54.120Z,1.93
2018-08-11T23:23:22.558Z,2.17
2018-08-11T23:25:50.979Z,1.80
2018-08-11T23:28:19.409Z,2.13
2018-08-11T23:30:47.827Z,2.20
2018-08-11T23:33:16.258Z,1.77
2018-08-11T23:35:44.681Z,1.80
2018-08-11T23:38:13.179Z,2.10
2018-08-11T23:40:41.771Z,2.33
2018-08-11T23:43:10.557Z,2.10
2018-08-11T23:45:39.064Z,2.00
2018-08-11T23:48:07.495Z,2.27
2018-08-11T23:50:35.930Z,1.97
2018-08-11T23:53:04.356Z,2.00
2018-08-11T23:55:32.784Z,2.13
2018-08-11T23:58:01.232Z,2.30
